Time;durP1;ratioP1;P1;durP2;ratioP2;P2;SDS_P1;SDS_P2;PMS_P1;PMS_P2;Temp;Humidity;BMP_temperature;BMP_pressure;BME280_temperature;BME280_humidity;BME280_pressure;Samples;Min_cycle;Max_cycle;Signal;HPM_P1;HPM_P2
2023/10/28 00:21:32;;;;;;;1235.38;505.75;;;9.90;99.90;;;;;;4917432;29;20331;-87
2023/10/28 00:24:43;;;;;;;;;;;;;;;;;;;;;
2023/10/28 00:28:14;;;;;;;1256.50;507.37;;;9.90;99.90;;;;;;4934583;29;20303;-87
2023/10/28 00:31:51;;;;;;;1249.63;506.27;;;9.90;99.90;;;;;;4930685;29;20307;-85
2023/10/28 00:34:55;;;;;;;;;;;9.90;99.90;;;;;;4944615;29;20358;-85
2023/10/28 00:37:35;;;;;;;1161.83;394.87;;;9.90;99.90;;;;;;4953218;29;19923;-86
2023/10/28 00:45:06;;;;;;;1161.03;398.80;;;9.90;99.90;;;;;;4974315;28;20346;-86
2023/10/28 00:48:35;;;;;;;1165.13;397.40;;;9.90;99.90;;;;;;4974038;28;20266;-85
2023/10/28 00:51:50;;;;;;;1225.70;501.73;;;9.90;99.90;;;;;;4972077;28;20298;-87
2023/10/28 00:55:07;;;;;;;1152.87;394.60;;;9.90;99.90;;;;;;4950608;29;20703;-86
2023/10/28 00:58:41;;;;;;;1229.90;501.73;;;10.30;99.90;;;;;;4963697;28;20624;-85
2023/10/28 01:16:46;;;;;;;;;;;;;;;;;;;;;
2023/10/28 01:20:13;;;;;;;1214.57;499.63;;;9.90;99.90;;;;;;5073215;28;20651;-88
2023/10/28 01:23:40;;;;;;;;;;;;;;;;;;;;;
2023/10/28 01:27:24;;;;;;;;;;;;;;;;;;;;;
2023/10/28 01:31:06;;;;;;;1149.97;397.43;;;10.50;99.90;;;;;;4972812;28;20332;-87
2023/10/28 01:34:21;;;;;;;;;;;;;;;;;;;;;
2023/10/28 01:49:31;;;;;;;;;;;10.00;99.90;;;;;;5009282;28;20354;-86
2023/10/28 01:52:56;;;;;;;1135.23;399.13;;;10.00;99.90;;;;;;5010387;28;20508;-85
2023/10/28 01:56:17;;;;;;;1197.65;505.95;;;10.00;99.90;;;;;;5007939;28;20667;-85
2023/10/28 01:59:48;;;;;;;1190.37;505.63;;;10.00;99.90;;;;;;4972519;28;20130;-85
2023/10/28 02:03:07;;;;;;;;;;;;;;;;;;;;;
2023/10/28 02:06:44;;;;;;;;;;;;;;;;;;;;;
2023/10/28 02:13:33;;;;;;;1125.27;399.93;;;10.10;99.90;;;;;;5005530;28;20659;-85
2023/10/28 02:17:09;;;;;;;1176.23;503.77;;;10.10;99.90;;;;;;5009290;28;20285;-85
2023/10/28 02:20:35;;;;;;;1109.60;401.73;;;10.10;99.90;;;;;;5011580;28;20284;-85
2023/10/28 02:24:06;;;;;;;1167.80;505.20;;;10.10;99.90;;;;;;5008737;28;20292;-85
2023/10/28 02:27:42;;;;;;;;;;;;;;;;;;;;;
2023/10/28 02:31:15;;;;;;;1167.13;506.17;;;10.10;99.90;;;;;;5023703;28;20306;-85
2023/10/28 02:38:15;;;;;;;1123.27;401.60;;;10.10;99.90;;;;;;5030719;28;20287;-85
2023/10/28 02:41:33;;;;;;;1117.00;402.27;;;10.10;99.90;;;;;;4988373;28;20835;-88
2023/10/28 02:45:10;;;;;;;1109.33;405.77;;;10.10;99.90;;;;;;5011429;28;20677;-88
2023/10/28 02:48:29;;;;;;;;;;;;;;;;;;;;;
2023/10/28 02:51:54;;;;;;;1122.23;402.33;;;10.10;99.90;;;;;;5024255;28;20361;-87
2023/10/28 02:55:28;;;;;;;;;;;;;;;;;;;;;
2023/10/28 03:02:11;;;;;;;1153.60;508.43;;;9.90;99.90;;;;;;4952414;29;20389;-86
2023/10/28 03:05:39;;;;;;;1151.38;506.75;;;9.80;99.90;;;;;;4934027;29;20290;-85
2023/10/28 03:08:54;;;;;;;1090.07;401.37;;;9.80;99.90;;;;;;4951762;28;20097;-86
2023/10/28 03:12:30;;;;;;;1151.97;508.03;;;9.70;99.90;;;;;;4950575;29;20315;-86
2023/10/28 03:16:15;;;;;;;1153.80;511.87;;;9.70;99.90;;;;;;4937486;29;20634;-87
2023/10/28 03:19:45;;;;;;;1088.40;402.67;;;9.90;99.90;;;;;;4935033;29;20315;-87
2023/10/28 03:30:34;;;;;;;1062.10;405.20;;;9.60;99.90;;;;;;4984143;28;20368;-88
2023/10/28 03:34:08;;;;;;;;;;;;;;;;;;;;;
2023/10/28 03:37:34;;;;;;;;;;;;;;;;;;;;;
2023/10/28 03:40:57;;;;;;;1062.33;403.20;;;9.60;99.90;;;;;;4993787;28;20348;-85
2023/10/28 03:44:23;;;;;;;1099.60;506.17;;;9.70;99.90;;;;;;5023444;28;20292;-86
2023/10/28 03:47:46;;;;;;;;;;;;;;;;;;;;;
2023/10/28 04:02:45;;;;;;;1058.93;401.63;;;9.60;99.90;;;;;;5030250;28;20275;-87
2023/10/28 04:06:15;;;;;;;1055.57;398.23;;;9.70;99.90;;;;;;5022912;28;20440;-87
2023/10/28 04:08:51;;;;;;;1111.70;506.60;;;9.80;99.90;;;;;;5015688;28;20342;-86
2023/10/28 04:12:05;;;;;;;;;;;;;;;;;;;;;
2023/10/28 04:15:18;;;;;;;1097.13;504.33;;;9.50;99.90;;;;;;4974104;28;20297;-86
2023/10/28 04:18:35;;;;;;;1098.33;508.40;;;9.50;99.90;;;;;;4964683;28;20285;-86
2023/10/28 04:25:29;;;;;;;;;;;;;;;;;;;;;
2023/10/28 04:29:00;;;;;;;;;;;;;;;;;;;;;
2023/10/28 04:32:27;;;;;;;;;;;;;;;;;;;;;
2023/10/28 04:35:15;;;;;;;1038.43;402.27;;;9.50;99.90;;;;;;4918094;29;20698;-84
2023/10/28 04:38:33;;;;;;;1085.57;499.43;;;9.50;99.90;;;;;;4935755;29;20298;-86
2023/10/28 04:42:10;;;;;;;;;;;;;;;;;;;;;
2023/10/28 04:49:05;;;;;;;;;;;;;;;;;;;;;
2023/10/28 04:52:37;;;;;;;1071.83;504.40;;;9.50;99.90;;;;;;4897912;29;20671;-85
2023/10/28 04:56:08;;;;;;;1024.97;395.33;;;9.60;99.90;;;;;;4863367;29;20577;-86
2023/10/28 04:59:23;;;;;;;1059.83;500.47;;;9.60;99.90;;;;;;4895796;29;20295;-85
2023/10/28 05:03:08;;;;;;;;;;;;;;;;;;;;;
2023/10/28 05:17:16;;;;;;;1069.50;503.77;;;9.60;99.90;;;;;;4935249;29;20356;-85
2023/10/28 05:20:30;;;;;;;1022.60;399.70;;;9.60;99.90;;;;;;4916251;29;20642;-84
2023/10/28 05:23:56;;;;;;;1010.70;396.47;;;9.80;99.90;;;;;;4931459;29;20296;-85
2023/10/28 05:27:17;;;;;;;1051.53;501.60;;;9.70;99.90;;;;;;4959474;28;20301;-85
2023/10/28 05:30:39;;;;;;;;;;;;;;;;;;;;;
2023/10/28 05:34:01;;;;;;;1018.80;397.30;;;9.60;99.90;;;;;;4952978;28;20051;-85
2023/10/28 05:40:49;;;;;;;1050.17;502.57;;;9.70;99.90;;;;;;4952343;28;20286;-86
2023/10/28 05:43:59;;;;;;;994.40;395.70;;;9.60;99.90;;;;;;4944579;28;20298;-82
2023/10/28 05:46:59;;;;;;;1006.97;402.35;;;9.70;99.90;;;;;;4996240;28;20312;-89
2023/10/28 05:49:36;;;;;;;1012.33;401.03;;;9.70;99.90;;;;;;4980106;28;20133;-82
2023/10/28 05:52:58;;;;;;;1015.20;501.83;;;9.70;99.90;;;;;;5027316;28;20360;-85
2023/10/28 05:56:35;;;;;;;;;;;;;;;;;;;;;
2023/10/28 06:03:41;;;;;;;;;;;;;;;;;;;;;
2023/10/28 06:06:43;;;;;;;968.80;398.60;;;9.70;99.90;;;;;;5073083;28;20343;-84
2023/10/28 06:09:41;;;;;;;989.15;501.92;;;9.80;99.90;;;;;;5039106;28;20369;-85
2023/10/28 06:12:24;;;;;;;980.90;499.83;;;9.70;99.90;;;;;;5072809;28;20048;-85
2023/10/28 06:15:46;;;;;;;;;;;;;;;;;;;;;
2023/10/28 06:19:07;;;;;;;983.57;502.33;;;9.80;99.90;;;;;;5030344;28;20328;-84
2023/10/28 06:26:23;;;;;;;;;;;;;;;;;;;;;
2023/10/28 06:29:43;;;;;;;969.93;496.47;;;9.80;99.90;;;;;;4933730;29;20291;-83
2023/10/28 06:33:18;;;;;;;;;;;;;;;;;;;;;
2023/10/28 06:36:49;;;;;;;948.90;392.67;;;9.80;99.90;;;;;;4810072;29;20295;-83
2023/10/28 06:39:53;;;;;;;940.97;396.05;;;9.60;99.90;;;;;;4821864;29;20382;-85
2023/10/28 06:43:13;;;;;;;935.43;391.03;;;9.80;99.90;;;;;;4788419;29;20069;-86
2023/10/28 06:53:59;;;;;;;938.07;393.97;;;9.80;99.90;;;;;;4875196;29;20301;-84
2023/10/28 06:57:20;;;;;;;935.20;397.53;;;9.90;99.90;;;;;;4854929;29;20388;-86
2023/10/28 07:00:29;;;;;;;928.00;390.60;;;9.90;99.90;;;;;;4857980;29;20847;-85
2023/10/28 07:03:37;;;;;;;923.17;391.97;;;9.90;99.90;;;;;;4903866;28;20304;-85
2023/10/28 07:06:49;;;;;;;;;;;;;;;;;;;;;
2023/10/28 07:10:09;;;;;;;;;;;;;;;;;;;;;
2023/10/28 07:17:00;;;;;;;925.60;391.83;;;10.00;99.90;;;;;;5072881;28;20098;-85
2023/10/28 07:20:03;;;;;;;923.27;391.33;;;10.10;99.90;;;;;;5051491;28;20282;-85
2023/10/28 07:23:26;;;;;;;;;;;;;;;;;;;;;
2023/10/28 07:26:51;;;;;;;;;;;;;;;;;;;;;
2023/10/28 07:29:46;;;;;;;917.00;489.17;;;10.10;99.90;;;;;;5030444;28;20270;-85
2023/10/28 07:33:00;;;;;;;924.53;493.43;;;10.10;99.90;;;;;;5029463;28;20311;-84
2023/10/28 07:46:50;;;;;;;917.67;396.77;;;10.20;99.90;;;;;;5011896;28;20293;-84
2023/10/28 07:50:01;;;;;;;913.70;393.93;;;10.20;99.90;;;;;;5029522;28;20714;-85
2023/10/28 07:53:19;;;;;;;;;;;;;;;;;;;;;
2023/10/28 07:56:19;;;;;;;;;;;;;;;;;;;;;
2023/10/28 07:59:34;;;;;;;902.30;391.50;;;10.30;99.90;;;;;;5053936;28;20287;-84
2023/10/28 08:03:03;;;;;;;;;;;;;;;;;;;;;
2023/10/28 08:06:28;;;;;;;900.53;494.47;;;10.40;99.90;;;;;;5053147;28;20360;-84
2023/10/28 08:09:44;;;;;;;;;;;;;;;;;;;;;
2023/10/28 08:12:59;;;;;;;907.67;393.37;;;10.40;99.90;;;;;;5071538;28;20435;-85
2023/10/28 08:16:15;;;;;;;907.10;394.90;;;10.50;99.90;;;;;;5057369;28;20282;-85
2023/10/28 08:19:36;;;;;;;;;;;;;;;;;;;;;
2023/10/28 08:23:00;;;;;;;912.67;393.93;;;10.50;99.90;;;;;;5075596;28;20267;-84
2023/10/28 08:26:03;;;;;;;909.13;394.10;;;10.60;99.90;;;;;;5073001;28;20358;-85
2023/10/28 08:29:13;;;;;;;921.63;496.47;;;10.60;99.90;;;;;;5095603;28;20785;-84
2023/10/28 08:32:23;;;;;;;;;;;;;;;;;;;;;
2023/10/28 08:35:38;;;;;;;908.13;398.73;;;10.70;99.90;;;;;;5071598;28;20294;-83
2023/10/28 08:38:45;;;;;;;911.50;394.43;;;10.70;99.90;;;;;;5094995;28;20294;-84
2023/10/28 08:42:03;;;;;;;914.00;492.60;;;10.80;99.90;;;;;;5074654;28;20365;-80
2023/10/28 08:45:01;;;;;;;904.07;394.43;;;10.80;99.90;;;;;;5094467;28;20309;-86
2023/10/28 08:51:45;;;;;;;;;;;;;;;;;;;;;
2023/10/28 08:55:01;;;;;;;892.37;393.20;;;11.00;99.90;;;;;;5076427;28;20040;-84
2023/10/28 08:58:28;;;;;;;904.85;490.55;;;11.10;99.90;;;;;;5060751;28;20809;-83
2023/10/28 09:01:27;;;;;;;;;;;;;;;;;;;;;
2023/10/28 09:04:31;;;;;;;913.97;397.13;;;11.10;99.90;;;;;;5091197;28;20292;-83
2023/10/28 09:07:53;;;;;;;923.63;400.50;;;11.20;99.90;;;;;;5091026;28;20319;-85
2023/10/28 09:18:43;;;;;;;907.67;495.17;;;11.30;99.90;;;;;;5094879;28;20249;-84
2023/10/28 09:21:46;;;;;;;;;;;;;;;;;;;;;
2023/10/28 09:25:14;;;;;;;908.40;496.47;;;11.40;99.90;;;;;;5012711;28;20820;-84
2023/10/28 09:28:25;;;;;;;903.67;494.40;;;11.50;99.90;;;;;;5008782;28;20285;-86
2023/10/28 09:31:33;;;;;;;915.15;498.83;;;11.50;99.90;;;;;;4996486;28;20380;-86
2023/10/28 09:34:44;;;;;;;;;;;;;;;;;;;;;
2023/10/28 09:38:02;;;;;;;900.70;495.77;;;11.50;99.90;;;;;;5012382;28;20073;-86
2023/10/28 09:41:18;;;;;;;909.25;402.85;;;11.60;99.90;;;;;;5012202;28;20332;-84
2023/10/28 09:44:43;;;;;;;918.43;403.97;;;11.60;99.90;;;;;;4994583;28;20533;-86
2023/10/28 09:47:48;;;;;;;913.83;496.60;;;11.60;99.90;;;;;;4954030;29;20652;-84
2023/10/28 09:50:48;;;;;;;;;;;11.60;99.90;;;;;;4953078;28;20390;-86
2023/10/28 09:53:52;;;;;;;904.63;403.83;;;11.70;99.90;;;;;;4934680;29;19966;-84
2023/10/28 09:56:42;;;;;;;919.93;409.30;;;11.70;99.90;;;;;;4916373;29;20294;-83
2023/10/28 09:59:22;;;;;;;912.20;500.57;;;11.80;99.90;;;;;;4920162;29;20291;-85
2023/10/28 10:02:24;;;;;;;914.53;405.47;;;11.90;99.90;;;;;;5001983;28;20304;-84
2023/10/28 10:05:20;;;;;;;935.30;504.57;;;11.90;99.90;;;;;;5007414;28;20299;-84
2023/10/28 10:07:56;;;;;;;935.13;411.50;;;12.00;99.90;;;;;;5030748;28;20293;-84
2023/10/28 10:10:51;;;;;;;;;;;;;;;;;;;;;
2023/10/28 10:13:37;;;;;;;918.40;409.47;;;12.10;99.90;;;;;;5028768;28;20310;-83
2023/10/28 10:16:46;;;;;;;924.43;417.60;;;12.20;99.90;;;;;;5023369;28;20073;-83
2023/10/28 10:20:02;;;;;;;901.77;497.27;;;12.20;99.90;;;;;;5052939;28;20271;-83
2023/10/28 10:22:59;;;;;;;909.00;500.30;;;12.20;99.90;;;;;;5088407;28;20288;-83
2023/10/28 10:25:51;;;;;;;884.83;494.37;;;12.10;99.90;;;;;;5093652;28;20279;-83
2023/10/28 10:28:32;;;;;;;893.75;407.65;;;12.10;99.90;;;;;;5075619;28;20339;-84
2023/10/28 10:31:21;;;;;;;875.40;493.90;;;12.10;99.90;;;;;;5075119;28;20444;-83
2023/10/28 10:34:09;;;;;;;865.63;390.60;;;12.10;99.90;;;;;;5075322;28;20330;-84
2023/10/28 10:37:02;;;;;;;853.23;486.10;;;12.10;99.90;;;;;;5091865;28;20350;-84
2023/10/28 10:39:51;;;;;;;866.93;491.63;;;12.10;99.90;;;;;;5086145;28;20404;-85
2023/10/28 10:42:33;;;;;;;850.63;482.60;;;12.10;99.90;;;;;;5079882;28;20283;-84
2023/10/28 10:45:07;;;;;;;859.97;487.03;;;12.10;99.90;;;;;;5083754;28;20047;-82
2023/10/28 10:47:48;;;;;;;889.30;406.65;;;12.10;99.90;;;;;;5092242;28;20270;-85
2023/10/28 10:50:41;;;;;;;879.07;396.00;;;12.10;99.90;;;;;;5070837;28;20101;-83
2023/10/28 10:53:26;;;;;;;881.90;400.03;;;12.10;99.90;;;;;;5074211;28;20790;-84
2023/10/28 10:55:56;;;;;;;853.43;486.30;;;12.00;99.90;;;;;;5072682;28;20646;-84
2023/10/28 10:58:40;;;;;;;859.40;492.37;;;12.00;99.90;;;;;;5074353;28;20642;-82
2023/10/28 11:08:46;;;;;;;861.10;384.93;;;12.20;99.90;;;;;;5085972;28;20282;-83
2023/10/28 11:12:19;;;;;;;853.10;377.17;;;12.20;99.90;;;;;;5092274;28;20645;-82
2023/10/28 11:15:29;;;;;;;1109.10;409.47;;;12.20;99.90;;;;;;5072807;28;20275;-84
2023/10/28 11:18:35;;;;;;;1141.07;517.90;;;12.20;99.90;;;;;;5011043;28;20679;-83
2023/10/28 11:21:15;;;;;;;1123.85;519.65;;;12.30;99.90;;;;;;5018964;28;20364;-83
2023/10/28 11:24:22;;;;;;;;;;;;;;;;;;;;;
2023/10/28 11:34:48;;;;;;;1041.00;512.40;;;12.30;99.90;;;;;;5034521;28;20653;-85
2023/10/28 11:37:47;;;;;;;1050.68;515.38;;;12.30;99.90;;;;;;5027413;28;20883;-84
2023/10/28 11:40:27;;;;;;;1022.33;422.70;;;12.30;99.90;;;;;;5033961;28;20092;-83
2023/10/28 11:43:47;;;;;;;1062.17;516.47;;;12.30;99.90;;;;;;5032776;28;20284;-83
2023/10/28 11:47:01;;;;;;;1074.67;519.97;;;12.40;99.90;;;;;;5017394;28;20386;-83
2023/10/28 11:50:17;;;;;;;1005.50;417.90;;;12.50;99.90;;;;;;5078424;28;20297;-82
2023/10/28 11:53:20;;;;;;;1004.67;415.33;;;12.50;99.90;;;;;;5096052;28;20314;-83
2023/10/28 11:56:20;;;;;;;;;;;;;;;;;;;;;
2023/10/28 11:59:01;;;;;;;1088.83;519.97;;;12.50;99.90;;;;;;5093137;28;20691;-86
2023/10/28 12:01:29;;;;;;;1002.63;420.90;;;12.50;99.90;;;;;;5098920;28;20798;-91
2023/10/28 12:04:45;;;;;;;;;;;;;;;;;;;;;
2023/10/28 12:08:00;;;;;;;1049.97;517.30;;;12.50;99.90;;;;;;5093377;28;20373;-87
2023/10/28 12:11:13;;;;;;;1035.20;515.80;;;12.50;99.90;;;;;;5096228;28;20302;-85
2023/10/28 12:14:23;;;;;;;1020.60;517.67;;;12.60;99.90;;;;;;5095040;28;20294;-84
2023/10/28 12:24:38;;;;;;;1007.20;425.33;;;12.70;99.90;;;;;;5094900;28;20282;-85
2023/10/28 12:27:32;;;;;;;1000.22;428.98;;;12.70;99.90;;;;;;5093362;28;20661;-83
2023/10/28 12:31:03;;;;;;;993.37;426.33;;;12.70;99.90;;;;;;5092806;28;20052;-83
2023/10/28 12:34:03;;;;;;;1026.33;517.47;;;12.70;99.90;;;;;;4960939;28;20687;-83
2023/10/28 12:37:19;;;;;;;1022.27;517.73;;;12.70;99.90;;;;;;4992572;28;20828;-83
2023/10/28 12:40:32;;;;;;;1021.87;519.67;;;12.70;99.90;;;;;;4994248;28;20277;-85
2023/10/28 12:43:34;;;;;;;993.13;428.03;;;12.80;99.90;;;;;;4979324;28;20747;-82
2023/10/28 13:12:01;;;;;;;;;;;;;;;;;;;;;
2023/10/28 13:15:24;;;;;;;;;;;;;;;;;;;;;
2023/10/28 13:18:55;;;;;;;1010.47;423.00;;;12.80;99.90;;;;;;5070702;28;20283;-82
2023/10/28 13:21:58;;;;;;;1055.63;519.20;;;12.80;99.90;;;;;;4972427;28;20353;-81
2023/10/28 13:25:15;;;;;;;1067.93;519.83;;;12.80;99.90;;;;;;4972108;28;20844;-82
2023/10/28 13:28:31;;;;;;;1025.80;425.67;;;12.80;99.90;;;;;;4971798;28;20302;-82
2023/10/28 13:39:31;;;;;;;;;;;;;;;;;;;;;
2023/10/28 13:42:41;;;;;;;;;;;;;;;;;;;;;
2023/10/28 13:46:11;;;;;;;1006.33;434.23;;;13.00;99.90;;;;;;4971224;28;20271;-84
2023/10/28 13:48:44;;;;;;;1007.47;432.20;;;12.90;99.90;;;;;;4914882;29;20291;-83
2023/10/28 13:51:39;;;;;;;1001.33;431.20;;;13.00;99.90;;;;;;4915488;29;20375;-82
2023/10/28 13:55:18;;;;;;;1005.40;430.77;;;13.00;99.90;;;;;;4943102;28;20670;-83
2023/10/28 14:09:16;;;;;;;987.13;430.67;;;13.00;99.90;;;;;;5008140;28;20288;-82
2023/10/28 14:12:31;;;;;;;986.95;429.27;;;13.00;99.90;;;;;;5001149;28;20355;-84
2023/10/28 14:15:43;;;;;;;986.67;427.17;;;13.00;99.90;;;;;;5007618;28;20233;-83
2023/10/28 14:19:11;;;;;;;1002.17;513.63;;;13.00;99.90;;;;;;5011817;28;20277;-82
2023/10/28 14:22:26;;;;;;;;;;;;;;;;;;;;;
2023/10/28 14:25:43;;;;;;;989.07;428.67;;;12.80;99.90;;;;;;5050759;28;20294;-86
2023/10/28 14:29:13;;;;;;;1014.03;518.67;;;12.70;99.90;;;;;;5052379;28;20280;-81
2023/10/28 14:32:16;;;;;;;1059.40;517.77;;;12.80;99.90;;;;;;5044348;28;20287;-84
2023/10/28 14:35:27;;;;;;;;;;;;;;;;;;;;;
2023/10/28 14:38:37;;;;;;;1102.93;520.73;;;12.90;99.90;;;;;;5070387;28;20752;-83
2023/10/28 14:41:46;;;;;;;1043.28;426.40;;;12.80;99.90;;;;;;5055208;28;20274;-84
2023/10/28 14:45:06;;;;;;;1046.53;422.27;;;12.70;99.90;;;;;;5069089;28;20048;-82
2023/10/28 14:48:21;;;;;;;1097.35;522.90;;;12.70;99.90;;;;;;5056602;28;20282;-82
2023/10/28 15:06:10;;;;;;;1091.20;523.93;;;12.70;99.90;;;;;;5090671;28;20261;-82
2023/10/28 15:09:13;;;;;;;1075.05;522.65;;;12.70;99.90;;;;;;5096437;28;20408;-82
2023/10/28 15:12:30;;;;;;;1039.73;431.90;;;12.60;99.90;;;;;;5094244;28;20052;-83
2023/10/28 15:16:04;;;;;;;;;;;;;;;;;;;;;
2023/10/28 15:19:41;;;;;;;;;;;;;;;;;;;;;
2023/10/28 15:22:59;;;;;;;1026.53;423.57;;;12.50;99.90;;;;;;4974899;28;20306;-82
2023/10/28 15:47:39;;;;;;;1029.10;426.90;;;12.30;99.90;;;;;;4960301;28;20787;-88
2023/10/28 15:51:04;;;;;;;1076.40;519.63;;;12.30;99.90;;;;;;4976050;28;20055;-91
2023/10/28 15:54:03;;;;;;;1026.07;416.60;;;12.30;99.90;;;;;;4936119;29;20310;-92
2023/10/28 15:57:13;;;;;;;1066.60;519.43;;;12.30;99.90;;;;;;5005457;28;20324;-90
2023/10/28 16:00:15;;;;;;;1019.30;423.50;;;12.20;99.90;;;;;;5032185;28;20338;-88
2023/10/28 16:03:23;;;;;;;1064.53;516.90;;;12.20;99.90;;;;;;5033679;28;20395;-86
2023/10/28 16:53:58;;;;;;;1041.87;417.03;;;11.80;99.90;;;;;;5079411;28;20309;-84
2023/10/28 16:57:09;;;;;;;;;;;11.70;99.90;;;;;;5071573;28;20301;-84
2023/10/28 17:00:34;;;;;;;1086.83;511.97;;;11.70;99.90;;;;;;5071454;28;19926;-83
2023/10/28 17:03:57;;;;;;;1038.00;412.60;;;11.60;99.90;;;;;;5057375;28;20409;-83
2023/10/28 17:07:30;;;;;;;1092.73;515.37;;;11.60;99.90;;;;;;5071081;28;20356;-84
2023/10/28 17:10:56;;;;;;;;;;;;;;;;;;;;;
2023/10/28 17:28:25;;;;;;;992.07;406.67;;;11.30;99.90;;;;;;4993416;28;20280;-83
2023/10/28 17:31:39;;;;;;;977.27;408.13;;;11.40;99.90;;;;;;5011990;28;20713;-82
2023/10/28 17:34:51;;;;;;;1015.27;508.23;;;11.20;99.90;;;;;;5008966;28;20357;-82
2023/10/28 17:38:17;;;;;;;;;;;;;;;;;;;;;
2023/10/28 17:41:44;;;;;;;983.63;403.00;;;11.30;99.90;;;;;;4954376;28;20302;-82
2023/10/28 17:45:08;;;;;;;987.17;411.40;;;11.20;99.90;;;;;;4955038;28;20312;-82
2023/10/28 18:46:14;;;;;;;961.17;403.63;;;10.80;99.90;;;;;;5076341;28;20874;-82
2023/10/28 18:49:38;;;;;;;977.93;499.23;;;10.80;99.90;;;;;;5054404;28;20253;-82
2023/10/28 18:52:49;;;;;;;;;;;;;;;;;;;;;
2023/10/28 18:55:28;;;;;;;950.47;400.63;;;10.80;99.90;;;;;;5051245;28;20268;-85
2023/10/28 18:58:56;;;;;;;966.53;497.07;;;10.60;99.90;;;;;;5070275;28;20032;-83
2023/10/28 19:01:47;;;;;;;945.58;399.35;;;10.50;99.90;;;;;;5010563;28;20831;-84
2023/10/28 19:04:14;;;;;;;954.73;401.10;;;10.40;99.90;;;;;;4986417;28;20064;-82
2023/10/28 19:07:16;;;;;;;964.47;498.67;;;10.40;99.90;;;;;;5009249;28;20289;-82
2023/10/28 19:10:45;;;;;;;;;;;;;;;;;;;;;
2023/10/28 19:14:07;;;;;;;990.67;503.13;;;10.40;99.90;;;;;;4951268;29;20397;-83
2023/10/28 19:17:08;;;;;;;984.90;500.77;;;10.30;99.90;;;;;;4914000;29;20303;-82
2023/10/28 19:20:09;;;;;;;956.33;399.30;;;10.20;99.90;;;;;;4857216;29;20446;-85
2023/10/28 19:22:37;;;;;;;966.50;497.70;;;10.20;99.90;;;;;;4853235;29;20396;-82
2023/10/28 19:25:07;;;;;;;945.30;399.23;;;10.20;99.90;;;;;;4845988;29;20299;-82
2023/10/28 19:27:36;;;;;;;948.80;399.93;;;10.20;99.90;;;;;;4841847;29;20825;-81
2023/10/28 19:30:02;;;;;;;951.90;402.17;;;10.20;99.90;;;;;;4857502;29;20878;-81
2023/10/28 19:32:32;;;;;;;942.53;399.00;;;10.10;99.90;;;;;;4856791;29;20074;-81
2023/10/28 19:34:59;;;;;;;956.60;500.53;;;10.10;99.90;;;;;;4857879;29;20053;-81
2023/10/28 19:37:29;;;;;;;968.97;513.40;;;10.00;99.90;;;;;;4868769;29;20409;-83
2023/10/28 19:39:56;;;;;;;956.53;424.60;;;10.00;99.90;;;;;;4850988;29;20763;-81
2023/10/28 19:42:26;;;;;;;939.57;397.73;;;10.00;99.90;;;;;;4874305;29;20304;-83
2023/10/28 19:44:55;;;;;;;957.60;498.63;;;9.90;99.90;;;;;;4876218;29;20379;-81
2023/10/28 19:47:25;;;;;;;947.20;404.20;;;9.90;99.90;;;;;;4853604;29;20787;-82
2023/10/28 19:49:54;;;;;;;944.97;492.17;;;9.90;99.90;;;;;;4927917;28;20303;-83
2023/10/28 19:52:27;;;;;;;952.27;505.90;;;9.90;99.90;;;;;;5005761;28;20289;-86
2023/10/28 19:55:00;;;;;;;941.63;505.77;;;9.80;99.90;;;;;;5046636;28;20291;-81
2023/10/28 19:57:28;;;;;;;946.17;413.20;;;9.80;99.90;;;;;;5066606;28;20401;-81
2023/10/28 20:00:04;;;;;;;954.33;506.27;;;9.80;99.90;;;;;;5067564;28;20855;-82
2023/10/28 20:02:36;;;;;;;933.13;404.23;;;9.70;99.90;;;;;;5047512;28;20856;-81
2023/10/28 20:05:11;;;;;;;929.77;405.37;;;9.70;99.90;;;;;;5066849;28;20325;-81
2023/10/28 20:07:49;;;;;;;943.63;409.47;;;9.70;99.90;;;;;;5050220;28;20282;-81
2023/10/28 20:10:23;;;;;;;941.60;494.77;;;9.50;99.90;;;;;;5051510;28;20703;-87
2023/10/28 20:13:04;;;;;;;939.83;490.57;;;9.60;99.90;;;;;;5092612;28;20338;-83
2023/10/28 20:15:39;;;;;;;940.13;495.07;;;9.60;99.90;;;;;;5052266;28;20370;-88
2023/10/28 20:18:11;;;;;;;935.17;395.60;;;10.10;99.90;;;;;;5073414;28;20309;-85
2023/10/28 20:20:49;;;;;;;907.03;385.80;;;9.50;99.90;;;;;;5067868;28;20278;-85
2023/10/28 20:23:28;;;;;;;916.73;390.27;;;9.50;99.90;;;;;;5059321;28;20397;-87
2023/10/28 20:25:59;;;;;;;930.80;489.87;;;9.50;99.90;;;;;;5068849;28;20284;-84
2023/10/28 20:28:33;;;;;;;928.57;490.67;;;9.50;99.90;;;;;;5073689;28;20303;-85
2023/10/28 20:31:09;;;;;;;916.38;390.25;;;9.50;99.90;;;;;;5075213;28;20283;-84
2023/10/28 20:33:42;;;;;;;912.50;389.23;;;9.50;99.90;;;;;;5074197;28;20052;-86
2023/10/28 20:36:11;;;;;;;900.83;381.30;;;9.50;99.90;;;;;;5058080;28;20044;-85
2023/10/28 20:38:40;;;;;;;915.37;390.03;;;9.50;99.90;;;;;;5057794;28;20291;-85
2023/10/28 20:41:13;;;;;;;915.87;487.47;;;9.50;99.90;;;;;;5074892;28;20801;-85
2023/10/28 20:44:08;;;;;;;907.63;388.50;;;9.50;99.90;;;;;;5074040;28;20356;-86
2023/10/28 20:47:39;;;;;;;912.40;487.50;;;9.80;99.90;;;;;;5077107;28;20396;-86
2023/10/28 20:50:49;;;;;;;915.23;388.80;;;9.50;99.90;;;;;;5025084;28;20291;-83
2023/10/28 20:53:52;;;;;;;907.97;487.92;;;9.50;99.90;;;;;;5030023;28;20297;-86
2023/10/28 20:57:07;;;;;;;903.63;387.10;;;9.50;99.90;;;;;;5032420;28;20450;-84
2023/10/28 21:00:38;;;;;;;;;;;;;;;;;;;;;
2023/10/28 21:04:05;;;;;;;909.30;485.30;;;9.50;99.90;;;;;;4973582;28;20301;-84
2023/10/28 21:10:44;;;;;;;875.47;378.30;;;9.50;99.90;;;;;;4971237;28;20291;-84
2023/10/28 21:14:08;;;;;;;890.60;381.33;;;9.50;99.90;;;;;;4935208;29;20319;-83
2023/10/28 21:17:34;;;;;;;887.27;480.47;;;9.50;99.90;;;;;;4942090;29;20176;-83
2023/10/28 21:20:14;;;;;;;879.50;377.33;;;9.90;99.90;;;;;;4948002;28;20864;-81
2023/10/28 21:22:51;;;;;;;;;;;9.50;99.90;;;;;;4966903;28;20296;-84
2023/10/28 21:25:52;;;;;;;881.70;470.17;;;9.50;99.90;;;;;;4962435;28;19932;-82
2023/10/28 21:28:43;;;;;;;883.30;472.73;;;9.60;99.90;;;;;;4986354;28;20289;-85
2023/10/28 21:31:25;;;;;;;869.80;375.83;;;9.60;99.90;;;;;;4959219;28;20306;-84
2023/10/28 21:34:15;;;;;;;882.80;377.60;;;9.50;99.90;;;;;;4951220;29;20361;-88
2023/10/28 21:36:44;;;;;;;870.20;476.60;;;9.60;99.90;;;;;;4938621;29;20287;-88
2023/10/28 21:39:24;;;;;;;872.17;377.27;;;9.60;99.90;;;;;;4977361;28;20846;-85
2023/10/28 21:41:59;;;;;;;878.87;477.47;;;9.60;99.90;;;;;;5026416;28;20284;-84
2023/10/28 21:44:29;;;;;;;866.47;378.13;;;9.60;99.90;;;;;;5054634;28;20352;-83
2023/10/28 21:50:55;;;;;;;869.77;384.40;;;9.60;99.90;;;;;;5091993;28;20085;-84
2023/10/28 21:53:24;;;;;;;864.08;474.52;;;9.60;99.90;;;;;;5091142;28;20309;-82
2023/10/28 21:55:53;;;;;;;868.80;378.97;;;9.60;99.90;;;;;;5094186;28;20044;-84
2023/10/28 21:58:28;;;;;;;871.37;476.93;;;9.60;99.90;;;;;;5093222;28;20384;-86
2023/10/28 22:01:52;;;;;;;870.37;478.80;;;9.60;99.90;;;;;;5092813;28;20733;-83
2023/10/28 22:05:12;;;;;;;;;;;;;;;;;;;;;
2023/10/28 22:08:45;;;;;;;871.60;379.53;;;9.70;99.90;;;;;;4972113;28;20329;-85
2023/10/28 22:11:23;;;;;;;884.50;487.90;;;9.70;99.90;;;;;;4950031;29;20806;-84
2023/10/28 22:13:49;;;;;;;873.27;377.47;;;9.70;99.90;;;;;;4911686;29;20315;-83
2023/10/28 22:16:16;;;;;;;857.10;471.53;;;9.70;99.90;;;;;;4921767;29;20348;-85
2023/10/28 22:18:42;;;;;;;851.03;475.80;;;9.80;99.90;;;;;;4925282;29;20303;-83
2023/10/28 22:21:10;;;;;;;875.67;381.13;;;9.70;99.90;;;;;;4934356;29;20311;-84
2023/10/28 22:23:39;;;;;;;871.77;478.90;;;9.80;99.90;;;;;;4933984;29;20056;-83
2023/10/28 22:26:09;;;;;;;866.80;379.83;;;9.80;99.90;;;;;;4917746;29;20308;-84
2023/10/28 22:28:43;;;;;;;850.97;472.83;;;9.80;99.90;;;;;;4934241;29;20288;-83
2023/10/28 22:31:13;;;;;;;862.40;375.57;;;9.80;99.90;;;;;;4934067;29;20292;-83
2023/10/28 22:33:42;;;;;;;864.40;381.57;;;9.80;99.90;;;;;;4933463;29;20047;-83
2023/10/28 22:36:10;;;;;;;859.90;479.57;;;9.80;99.90;;;;;;4979476;28;20294;-83
2023/10/28 22:38:37;;;;;;;861.03;479.50;;;9.90;99.90;;;;;;4975609;28;20351;-83
2023/10/28 22:41:04;;;;;;;865.10;481.97;;;9.90;99.90;;;;;;5002231;28;20419;-83
2023/10/28 22:43:30;;;;;;;850.27;476.67;;;9.90;99.90;;;;;;5017714;28;20797;-84
2023/10/28 22:45:57;;;;;;;861.13;380.03;;;9.90;99.90;;;;;;5075660;28;20288;-85
2023/10/28 22:48:23;;;;;;;852.53;478.80;;;10.00;99.90;;;;;;5093249;28;20047;-91
2023/10/28 22:50:49;;;;;;;863.47;480.80;;;10.00;99.90;;;;;;5092291;28;20237;-83
2023/10/28 22:53:15;;;;;;;865.07;382.33;;;10.00;99.90;;;;;;5093303;28;20305;-82
2023/10/28 22:56:27;;;;;;;852.80;476.97;;;10.00;99.90;;;;;;5092987;28;20285;-84